Nearby METAR Reports

 

KADS - Dallas/Addison, Texas, USA
Distance from station: SSE 13mi, 21km
Updated: Tue, 08-14-2018 11:47am CDT
Partly cloudy
Partly cloudy
 Wind from S
Wind: S 7 mph , 11 km/h
Temperature: 81°F , 27°C
Heat Index: 85°F , 29°C
Dew Point: 72°F , 22°C
Humidity: 74%
Barometer: 30.01 inHg , 1016.3 hPa
Clouds: Partly cloudy
Visibility: 10 miles , 16 km
Cloud details: Few Clouds 1500 ft
Partly cloudy 3800 ft
Partly cloudy 5000 ft
2018/08/14 16:47 KADS 141647Z 18006KT 10SM FEW015 SCT038 SCT050 27/22 A3001 RMK TS DSNT NORTH
KTKI - Mckinney, Texas, USA
Distance from station: E 17mi, 27km
Updated: Tue, 08-14-2018 11:53am CDT
Light rain, Partly cloudy
Light rain, Partly cloudy
 Wind from S
Wind: S 6 mph , 9 km/h
Temperature: 79°F , 26°C
Dew Point: 73°F , 23°C
Humidity: 84%
Barometer: 30.01 inHg , 1016.3 hPa
Summary: Light rain
Clouds: Partly cloudy
Visibility: 9 miles , 14 km
Cloud details: Partly cloudy 10000 ft
Partly cloudy 12000 ft
2018/08/14 16:53 KTKI 141653Z 17005KT 9SM -RA SCT100 SCT120 26/23 A3001 RMK AO2 LTG DSNT NW RAE24B50 SLP158 P0000 T02610233
 
KDFW - Dallas/Ft Worth, Texas, USA
Distance from station: SSW 19mi, 30km
Updated: Tue, 08-14-2018 11:53am CDT
Mostly cloudy
Mostly cloudy
 Wind from S
Wind: S 9 mph , 15 km/h
Temperature: 81°F , 27°C
Heat Index: 85°F , 29°C
Dew Point: 72°F , 22°C
Humidity: 74%
Barometer: 29.98 inHg , 1015.2 hPa
Clouds: Mostly cloudy
Visibility: 10 miles , 16 km
Cloud details: Few Clouds 2000 ft
Partly cloudy 11000 ft
Mostly cloudy 14000 ft
2018/08/14 16:53 KDFW 141653Z 17008KT 10SM FEW020 SCT110 BKN140 27/22 A2998 RMK AO2 SLP144 T02720217
KDTO - Denton, Texas, USA
Distance from station: W 19mi, 31km
Updated: Tue, 08-14-2018 11:53am CDT
Mostly cloudy
Mostly cloudy
 Wind from varies
Wind: varies 7 mph , 11 km/h
Temperature: 73°F , 23°C
Dew Point: 68°F , 20°C
Humidity: 83%
Barometer: 30.00 inHg , 1015.9 hPa
Clouds: Mostly cloudy
Visibility: 10 miles , 16 km
Cloud details: Mostly cloudy 10000 ft
2018/08/14 16:53 KDTO 141653Z VRB06KT 10SM BKN100 23/20 A3000 RMK AO2 LTG DSNT NW-NE RAE00B13E49 TSB1558E50 SLP152 P0000 T02280200
 
KDAL - Dallas/Love Fld, Texas, USA
Distance from station: S 20mi, 33km
Updated: Tue, 08-14-2018 11:53am CDT
Mostly cloudy
Mostly cloudy
 Wind from S
Wind: S 6 mph , 9 km/h
Temperature: 84°F , 29°C
Heat Index: 89°F , 32°C
Dew Point: 72°F , 22°C
Humidity: 66%
Barometer: 29.99 inHg , 1015.6 hPa
Clouds: Mostly cloudy
Visibility: 8 miles , 13 km
Cloud details: Few Clouds 2000 ft
Few Clouds 4500 ft
Mostly cloudy 15000 ft
Mostly cloudy 25000 ft
2018/08/14 16:53 KDAL 141653Z 19005KT 8SM FEW020 FEW045 BKN150 BKN250 29/22 A2999 RMK AO2 SLP149 T02890217